createdAt,value
2016-05-10T00:01:09.361Z,13.67
2016-05-10T00:01:56.285Z,13.64
2016-05-10T00:02:55.210Z,13.55
2016-05-10T00:04:09.354Z,13.57
2016-05-10T00:04:55.185Z,13.57
2016-05-10T00:05:55.187Z,13.52
2016-05-10T00:06:55.174Z,13.52
2016-05-10T00:07:55.161Z,13.54
2016-05-10T00:08:55.163Z,13.52
2016-05-10T00:09:55.010Z,13.57
2016-05-10T00:10:55.169Z,13.59
2016-05-10T00:11:55.172Z,13.52
2016-05-10T00:12:55.186Z,13.51
2016-05-10T00:13:55.214Z,13.49
2016-05-10T00:14:55.868Z,13.51
2016-05-10T00:15:55.146Z,13.52
2016-05-10T00:16:55.346Z,13.44
2016-05-10T00:17:55.357Z,13.55
2016-05-10T00:18:55.217Z,13.41
2016-05-10T00:19:55.391Z,13.42
2016-05-10T00:20:55.393Z,13.39
2016-05-10T00:21:55.254Z,13.41
2016-05-10T00:22:55.421Z,13.36
2016-05-10T00:23:55.413Z,13.36
2016-05-10T00:24:55.422Z,13.3
2016-05-10T00:25:55.429Z,13.38
2016-05-10T00:26:55.437Z,13.33
2016-05-10T00:27:55.428Z,13.23
2016-05-10T00:28:55.276Z,13.29
2016-05-10T00:29:55.297Z,13.19
2016-05-10T00:30:55.426Z,13.28
2016-05-10T00:31:55.462Z,13.25
2016-05-10T00:32:55.262Z,13.25
2016-05-10T00:33:55.422Z,13.14
2016-05-10T00:34:55.425Z,13.11
2016-05-10T00:35:55.414Z,13.15
2016-05-10T00:36:55.432Z,13.1
2016-05-10T00:37:55.420Z,13.1
2016-05-10T00:38:55.252Z,13.01
2016-05-10T00:39:55.410Z,13
2016-05-10T00:40:55.413Z,13
2016-05-10T00:41:55.401Z,12.86
2016-05-10T00:42:55.404Z,12.77
2016-05-10T00:43:55.407Z,12.86
2016-05-10T00:44:55.580Z,12.74
2016-05-10T00:45:55.397Z,12.78
2016-05-10T00:46:55.399Z,12.65
2016-05-10T00:47:55.386Z,12.71
2016-05-10T00:48:55.389Z,12.65
2016-05-10T00:49:55.391Z,12.64
2016-05-10T00:50:55.222Z,12.64
2016-05-10T00:51:55.381Z,12.59
2016-05-10T00:52:55.368Z,12.56
2016-05-10T00:53:55.371Z,12.56
2016-05-10T00:54:55.374Z,12.57
2016-05-10T00:55:55.361Z,12.52
2016-05-10T00:56:55.363Z,12.5
2016-05-10T00:57:55.210Z,12.49
2016-05-10T00:58:55.368Z,12.47
2016-05-10T00:59:55.215Z,12.5
2016-05-10T01:00:55.359Z,12.49
2016-05-10T01:01:55.345Z,12.46
2016-05-10T01:02:55.348Z,12.41
2016-05-10T01:03:57.336Z,12.45
2016-05-10T01:04:55.714Z,12.42
2016-05-10T01:05:56.059Z,12.39
2016-05-10T01:06:55.937Z,12.46
2016-05-10T01:07:55.331Z,12.38
2016-05-10T01:08:55.911Z,12.35
2016-05-10T01:09:56.305Z,12.5
2016-05-10T01:10:55.761Z,12.35
2016-05-10T01:11:55.669Z,12.41
2016-05-10T01:12:56.641Z,12.37
2016-05-10T01:13:55.316Z,12.38
2016-05-10T01:14:56.272Z,12.34
2016-05-10T01:15:55.321Z,12.45
2016-05-10T01:16:55.371Z,12.41
2016-05-10T01:17:55.311Z,12.45
2016-05-10T01:18:55.297Z,12.38
2016-05-10T01:19:56.597Z,12.31
2016-05-10T01:20:56.303Z,12.34
2016-05-10T01:21:55.446Z,12.23
2016-05-10T01:22:55.230Z,12.34
2016-05-10T01:23:55.296Z,12.31
2016-05-10T01:24:55.283Z,12.28
2016-05-10T01:25:55.395Z,12.28
2016-05-10T01:26:55.273Z,12.24
2016-05-10T01:27:55.275Z,12.17
2016-05-10T01:28:55.278Z,12.27
2016-05-10T01:29:55.327Z,12.19
2016-05-10T01:30:55.267Z,12.24
2016-05-10T01:31:55.270Z,12.19
2016-05-10T01:32:55.273Z,12.19
2016-05-10T01:33:55.260Z,12.17
2016-05-10T01:34:55.262Z,12.16
2016-05-10T01:35:55.093Z,12.1
2016-05-10T01:36:55.096Z,12.02
2016-05-10T01:37:55.255Z,12.16
2016-05-10T01:38:55.242Z,11.99
2016-05-10T01:39:55.089Z,12.04
2016-05-10T01:40:55.232Z,12.1
2016-05-10T01:41:55.234Z,12.07
2016-05-10T01:42:55.237Z,11.99
2016-05-10T01:43:55.068Z,12.1
2016-05-10T01:44:55.680Z,12.02
2016-05-10T01:45:55.058Z,12.07
2016-05-10T01:46:55.233Z,12.01
2016-05-10T01:47:55.064Z,11.98
2016-05-10T01:48:55.207Z,12.04
2016-05-10T01:49:54.896Z,12.07
2016-05-10T01:50:55.212Z,12.04
2016-05-10T01:51:55.215Z,12.1
2016-05-10T01:52:55.202Z,12.1
2016-05-10T01:53:55.033Z,12.05
2016-05-10T01:54:55.191Z,12.13
2016-05-10T01:55:55.179Z,12.09
2016-05-10T01:56:55.196Z,12.01
2016-05-10T01:57:55.200Z,12.14
2016-05-10T01:58:55.171Z,12.05
2016-05-10T01:59:55.393Z,12.01
2016-05-10T02:00:55.020Z,12.05
2016-05-10T02:01:55.163Z,11.96
2016-05-10T02:02:55.165Z,12.02
2016-05-10T02:03:55.153Z,12.01
2016-05-10T02:04:55.171Z,12.02
2016-05-10T02:05:55.143Z,12.04
2016-05-10T02:06:55.146Z,11.96
2016-05-10T02:07:55.148Z,11.98
2016-05-10T02:08:55.135Z,11.96
2016-05-10T02:09:54.981Z,12.02
2016-05-10T02:10:54.984Z,11.99
2016-05-10T02:11:54.972Z,11.94
2016-05-10T02:12:55.131Z,11.8
2016-05-10T02:13:55.117Z,11.85
2016-05-10T02:14:55.511Z,11.86
2016-05-10T02:15:55.138Z,11.79
2016-05-10T02:16:55.125Z,11.73
2016-05-10T02:17:54.956Z,11.82
2016-05-10T02:18:55.100Z,11.79
2016-05-10T02:19:55.102Z,11.69
2016-05-10T02:20:55.105Z,11.7
2016-05-10T02:21:57.108Z,11.65
2016-05-10T02:22:55.454Z,11.67
2016-05-10T02:23:56.207Z,11.65
2016-05-10T02:24:56.366Z,11.62
2016-05-10T02:25:55.353Z,11.54
2016-05-10T02:26:55.809Z,11.54
2016-05-10T02:27:55.077Z,11.58
2016-05-10T02:28:56.190Z,11.54
2016-05-10T02:29:55.285Z,11.49
2016-05-10T02:30:56.835Z,11.46
2016-05-10T02:31:56.009Z,11.4
2016-05-10T02:32:55.153Z,11.44
2016-05-10T02:33:55.062Z,11.33
2016-05-10T02:34:55.065Z,11.33
2016-05-10T02:35:55.193Z,11.39
2016-05-10T02:36:55.039Z,11.28
2016-05-10T02:37:55.400Z,11.32
2016-05-10T02:38:55.637Z,11.27
2016-05-10T02:39:55.094Z,11.25
2016-05-10T02:40:55.925Z,11.29
2016-05-10T02:41:54.881Z,11.29
2016-05-10T02:43:09.211Z,11.27
2016-05-10T02:43:55.417Z,11.27
2016-05-10T02:44:54.872Z,11.21
2016-05-10T02:45:55.017Z,11.27
2016-05-10T02:46:55.019Z,11.21
2016-05-10T02:47:54.849Z,11.22
2016-05-10T02:48:54.837Z,11.21
2016-05-10T02:49:54.839Z,11.25
2016-05-10T02:50:54.998Z,11.17
2016-05-10T02:51:54.986Z,11.22
2016-05-10T02:52:54.832Z,11.15
2016-05-10T02:53:54.975Z,11.17
2016-05-10T02:54:54.978Z,11.25
2016-05-10T02:55:54.980Z,11.25
2016-05-10T02:56:54.811Z,11.25
2016-05-10T02:57:54.970Z,11.17
2016-05-10T02:58:54.957Z,11.22
2016-05-10T02:59:54.991Z,11.27
2016-05-10T03:00:54.634Z,11.22
2016-05-10T03:01:54.950Z,11.18
2016-05-10T03:02:54.937Z,11.29
2016-05-10T03:03:54.940Z,11.27
2016-05-10T03:04:54.942Z,11.32
2016-05-10T03:05:54.929Z,11.24
2016-05-10T03:06:54.932Z,11.28
2016-05-10T03:07:54.778Z,11.22
2016-05-10T03:08:54.922Z,11.32
2016-05-10T03:09:54.925Z,11.35
2016-05-10T03:10:54.911Z,11.21
2016-05-10T03:11:54.914Z,11.32
2016-05-10T03:12:54.901Z,11.28
2016-05-10T03:13:54.764Z,11.24
2016-05-10T03:14:54.906Z,11.21
2016-05-10T03:15:54.737Z,11.28
2016-05-10T03:16:54.896Z,11.29
2016-05-10T03:17:54.884Z,11.28
2016-05-10T03:18:54.886Z,11.24
2016-05-10T03:19:54.888Z,11.24
2016-05-10T03:20:54.892Z,11.25
2016-05-10T03:21:54.894Z,11.22
2016-05-10T03:22:54.865Z,11.28
2016-05-10T03:23:54.868Z,11.27
2016-05-10T03:24:54.715Z,11.22
2016-05-10T03:25:54.858Z,11.32
2016-05-10T03:26:54.877Z,11.33
2016-05-10T03:27:54.848Z,11.25
2016-05-10T03:28:54.851Z,11.27
2016-05-10T03:29:54.682Z,11.29
2016-05-10T03:30:54.840Z,11.33
2016-05-10T03:31:54.843Z,11.25
2016-05-10T03:32:54.830Z,11.33
2016-05-10T03:33:54.832Z,11.27
2016-05-10T03:34:54.663Z,11.35
2016-05-10T03:35:54.823Z,11.36
2016-05-10T03:36:54.653Z,11.42
2016-05-10T03:37:54.829Z,11.33
2016-05-10T03:38:54.814Z,11.36
2016-05-10T03:39:54.645Z,11.37
2016-05-10T03:40:56.273Z,11.39
2016-05-10T03:41:56.682Z,11.44
2016-05-10T03:42:56.373Z,11.46
2016-05-10T03:43:55.484Z,11.55
2016-05-10T03:44:54.628Z,11.55
2016-05-10T03:45:54.615Z,11.58
2016-05-10T03:46:54.774Z,11.64
2016-05-10T03:47:55.527Z,11.69
2016-05-10T03:48:55.717Z,11.67
2016-05-10T03:49:55.720Z,11.76
2016-05-10T03:51:09.988Z,11.76
2016-05-10T03:51:55.958Z,11.82
2016-05-10T03:52:55.899Z,11.79
2016-05-10T03:53:54.605Z,11.8
2016-05-10T03:54:54.780Z,11.8
2016-05-10T03:55:54.736Z,12.01
2016-05-10T03:56:55.223Z,12.01
2016-05-10T03:57:54.741Z,12.09
2016-05-10T03:58:55.321Z,12.16
2016-05-10T03:59:55.840Z,12.28
2016-05-10T04:00:55.140Z,12.46
2016-05-10T04:01:54.877Z,12.56
2016-05-10T04:02:54.723Z,12.72
2016-05-10T04:03:54.710Z,12.86
2016-05-10T04:04:54.806Z,13
2016-05-10T04:05:54.715Z,13.17
2016-05-10T04:06:54.546Z,13.41
2016-05-10T04:07:54.706Z,13.59
2016-05-10T04:08:54.709Z,13.75
2016-05-10T04:09:54.539Z,13.89
2016-05-10T04:10:54.729Z,14.09
2016-05-10T04:11:54.701Z,14.35
2016-05-10T04:12:54.703Z,14.37
2016-05-10T04:13:54.706Z,14.54
2016-05-10T04:14:55.771Z,14.61
2016-05-10T04:15:54.680Z,14.88
2016-05-10T04:16:54.698Z,14.94
2016-05-10T04:17:54.701Z,15.19
2016-05-10T04:18:54.688Z,15.34
2016-05-10T04:19:54.519Z,15.49
2016-05-10T04:20:54.677Z,15.64
2016-05-10T04:21:54.680Z,15.8
2016-05-10T04:22:54.683Z,16
2016-05-10T04:23:54.530Z,16.08
2016-05-10T04:24:54.689Z,16.38
2016-05-10T04:25:54.692Z,16.6
2016-05-10T04:26:54.678Z,16.75
2016-05-10T04:27:54.524Z,16.97
2016-05-10T04:28:54.683Z,17.19
2016-05-10T04:29:54.811Z,17.36
2016-05-10T04:30:54.689Z,17.41
2016-05-10T04:31:54.536Z,17.55
2016-05-10T04:32:54.694Z,17.68
2016-05-10T04:33:54.696Z,17.71
2016-05-10T04:34:54.685Z,17.72
2016-05-10T04:35:54.702Z,17.95
2016-05-10T04:36:54.705Z,18.21
2016-05-10T04:37:54.552Z,18.3
2016-05-10T04:38:54.398Z,18.54
2016-05-10T04:39:54.713Z,18.75
2016-05-10T04:40:54.700Z,18.9
2016-05-10T04:41:54.547Z,19.13
2016-05-10T04:42:54.565Z,19.25
2016-05-10T04:43:54.568Z,19.4
2016-05-10T04:44:54.821Z,19.62
2016-05-10T04:45:54.745Z,19.73
2016-05-10T04:46:54.731Z,20.05
2016-05-10T04:47:54.734Z,20.1
2016-05-10T04:48:54.737Z,20.28
2016-05-10T04:49:54.740Z,20.38
2016-05-10T04:50:54.743Z,20.7
2016-05-10T04:51:54.745Z,21.06
2016-05-10T04:52:54.747Z,21.19
2016-05-10T04:53:54.750Z,21.29
2016-05-10T04:54:54.769Z,21.37
2016-05-10T04:55:54.460Z,21.59
2016-05-10T04:56:54.774Z,21.72
2016-05-10T04:57:54.778Z,21.8
2016-05-10T04:58:54.811Z,22.05
2016-05-10T04:59:55.596Z,22.07
2016-05-10T05:00:55.067Z,22.17
2016-05-10T05:01:54.663Z,22.24
2016-05-10T05:02:55.604Z,22.27
2016-05-10T05:03:55.231Z,22.51
2016-05-10T05:04:55.234Z,22.55
2016-05-10T05:05:54.846Z,22.7
2016-05-10T05:06:54.942Z,22.77
2016-05-10T05:07:54.695Z,22.88
2016-05-10T05:09:09.588Z,22.86
2016-05-10T05:09:56.809Z,22.85
2016-05-10T05:10:54.876Z,22.85
2016-05-10T05:11:54.878Z,22.92
2016-05-10T05:12:55.833Z,22.95
2016-05-10T05:13:54.899Z,22.92
2016-05-10T05:14:54.917Z,23.1
2016-05-10T05:15:54.919Z,23.31
2016-05-10T05:16:55.813Z,23.35
2016-05-10T05:17:54.925Z,23.39
2016-05-10T05:18:55.693Z,23.46
2016-05-10T05:19:55.149Z,23.47
2016-05-10T05:20:55.105Z,23.57
2016-05-10T05:21:55.217Z,23.6
2016-05-10T05:22:54.875Z,23.68
2016-05-10T05:23:54.988Z,23.76
2016-05-10T05:24:54.991Z,23.95
2016-05-10T05:25:55.009Z,24.12
2016-05-10T05:26:54.855Z,24.35
2016-05-10T05:27:55.030Z,24.55
2016-05-10T05:28:55.048Z,24.81
2016-05-10T05:29:55.160Z,24.96
2016-05-10T05:30:54.913Z,25.2
2016-05-10T05:31:55.071Z,25.15
2016-05-10T05:32:55.075Z,25.2
2016-05-10T05:33:55.078Z,25.21
2016-05-10T05:34:55.096Z,25.18
2016-05-10T05:35:55.113Z,25.23
2016-05-10T05:36:55.132Z,25.38
2016-05-10T05:37:55.135Z,25.38
2016-05-10T05:38:55.137Z,25.45
2016-05-10T05:39:55.156Z,25.65
2016-05-10T05:40:55.002Z,25.75
2016-05-10T05:41:55.177Z,25.85
2016-05-10T05:42:55.179Z,25.82
2016-05-10T05:43:54.885Z,25.91
2016-05-10T05:44:55.217Z,25.99
2016-05-10T05:45:55.219Z,26.06
2016-05-10T05:46:55.081Z,26.18
2016-05-10T05:47:55.240Z,26.39
2016-05-10T05:48:54.930Z,26.55
2016-05-10T05:49:55.277Z,26.6
2016-05-10T05:50:55.295Z,26.55
2016-05-10T05:51:55.297Z,26.63
2016-05-10T05:52:55.144Z,26.62
2016-05-10T05:53:55.319Z,26.69
2016-05-10T05:54:55.336Z,26.75
2016-05-10T05:55:55.183Z,26.77
2016-05-10T05:56:55.342Z,26.94
2016-05-10T05:57:55.360Z,27.04
2016-05-10T05:58:55.363Z,27.18
2016-05-10T05:59:55.632Z,27.43
2016-05-10T06:00:55.244Z,27.66
2016-05-10T06:01:55.262Z,27.78
2016-05-10T06:02:55.452Z,27.85
2016-05-10T06:03:55.439Z,27.75
2016-05-10T06:04:55.458Z,27.55
2016-05-10T06:05:55.460Z,27.43
2016-05-10T06:06:55.479Z,27.5
2016-05-10T06:07:55.497Z,27.5
2016-05-10T06:08:55.344Z,27.46
2016-05-10T06:09:55.517Z,27.41
2016-05-10T06:10:55.536Z,27.55
2016-05-10T06:11:55.554Z,27.51
2016-05-10T06:12:55.401Z,27.36
2016-05-10T06:13:55.560Z,27.36
2016-05-10T06:14:55.891Z,27.31
2016-05-10T06:15:55.471Z,27.27
2016-05-10T06:16:55.614Z,27.27
2016-05-10T06:17:57.883Z,27.25
2016-05-10T06:18:56.261Z,27.25
2016-05-10T06:19:56.529Z,27.18
2016-05-10T06:20:55.673Z,27.14
2016-05-10T06:21:55.676Z,27.1
2016-05-10T06:22:55.694Z,27.32
2016-05-10T06:23:55.697Z,27.47
2016-05-10T06:25:09.902Z,27.69
2016-05-10T06:26:09.967Z,27.79
2016-05-10T06:26:56.704Z,27.97
2016-05-10T06:28:55.866Z,28.41
2016-05-10T06:29:55.853Z,28.55
2016-05-10T06:30:55.808Z,28.62
2016-05-10T06:31:55.828Z,28.54
2016-05-10T06:32:56.673Z,28.59
2016-05-10T06:33:56.254Z,28.77
2016-05-10T06:34:56.069Z,28.92
2016-05-10T06:35:56.447Z,29.15
2016-05-10T06:36:56.246Z,29.24
2016-05-10T06:37:55.922Z,29.28
2016-05-10T06:38:56.440Z,29.33
2016-05-10T06:39:56.207Z,29.52
2016-05-10T06:40:55.960Z,29.61
2016-05-10T06:41:55.963Z,29.71
2016-05-10T06:42:55.982Z,29.8
2016-05-10T06:43:56.001Z,29.87
2016-05-10T06:44:56.065Z,29.94
2016-05-10T06:45:55.896Z,29.85
2016-05-10T06:46:56.055Z,29.92
2016-05-10T06:47:56.073Z,30.01
2016-05-10T06:48:55.935Z,30.13
2016-05-10T06:49:56.110Z,30.07
2016-05-10T06:50:56.128Z,30.04
2016-05-10T06:51:56.147Z,30.16
2016-05-10T06:52:56.165Z,30.08
2016-05-10T06:53:56.168Z,30.01
2016-05-10T06:54:56.201Z,29.89
2016-05-10T06:55:56.203Z,29.83
2016-05-10T06:56:56.238Z,29.82
2016-05-10T06:57:56.100Z,29.7
2016-05-10T06:58:56.259Z,29.58
2016-05-10T06:59:57.324Z,29.34
2016-05-10T07:00:56.139Z,29.05
2016-05-10T07:01:56.329Z,28.95
2016-05-10T07:02:56.333Z,28.81
2016-05-10T07:03:56.350Z,28.7
2016-05-10T07:04:56.369Z,28.76
2016-05-10T07:05:56.387Z,28.83
2016-05-10T07:06:56.390Z,28.85
2016-05-10T07:07:56.408Z,28.7
2016-05-10T07:08:56.426Z,28.49
2016-05-10T07:09:56.461Z,28.37
2016-05-10T07:10:56.463Z,28.37
2016-05-10T07:11:56.481Z,28.4
2016-05-10T07:12:56.499Z,28.48
2016-05-10T07:13:56.518Z,28.66
2016-05-10T07:14:56.834Z,28.83
2016-05-10T07:15:56.555Z,28.9
2016-05-10T07:16:56.573Z,28.98
2016-05-10T07:17:56.435Z,29.19
2016-05-10T07:18:56.609Z,29.42
2016-05-10T07:19:56.473Z,29.6
2016-05-10T07:20:56.490Z,29.79
2016-05-10T07:21:56.508Z,29.92
2016-05-10T07:22:56.526Z,29.73
2016-05-10T07:23:56.373Z,29.43
2016-05-10T07:24:56.720Z,29.11
2016-05-10T07:25:56.723Z,29.06
2016-05-10T07:26:56.584Z,29.09
2016-05-10T07:27:56.775Z,29.14
2016-05-10T07:28:56.777Z,29.3
2016-05-10T07:29:56.655Z,29.6
2016-05-10T07:30:56.813Z,29.73
2016-05-10T07:31:56.847Z,30.08
2016-05-10T07:32:56.694Z,30.17
2016-05-10T07:33:56.869Z,30.16
2016-05-10T07:34:56.747Z,30.15
2016-05-10T07:35:56.749Z,30.07
2016-05-10T07:36:58.486Z,30
2016-05-10T07:37:57.316Z,30.05
2016-05-10T07:38:58.554Z,30.17
2016-05-10T07:39:56.979Z,30.11
2016-05-10T07:40:56.996Z,30.11
2016-05-10T07:41:57.562Z,30.2
2016-05-10T07:42:57.049Z,30.17
2016-05-10T07:44:11.224Z,30.22
2016-05-10T07:44:58.446Z,30.22
2016-05-10T07:45:57.104Z,30.31
2016-05-10T07:46:57.732Z,30.01
2016-05-10T07:47:58.797Z,30
2016-05-10T07:48:58.534Z,29.98
2016-05-10T07:49:57.006Z,30.04
2016-05-10T07:50:57.024Z,30.07
2016-05-10T07:51:57.042Z,30.11
2016-05-10T07:52:57.061Z,30.04
2016-05-10T07:53:57.470Z,30.08
2016-05-10T07:54:57.270Z,30.19
2016-05-10T07:55:57.272Z,30.08
2016-05-10T07:56:57.290Z,30.07
2016-05-10T07:57:57.511Z,30.07
2016-05-10T07:58:57.577Z,29.9
2016-05-10T07:59:57.439Z,30.08
2016-05-10T08:00:57.363Z,30.08
2016-05-10T08:01:57.381Z,29.94
2016-05-10T08:02:57.400Z,29.94
2016-05-10T08:03:57.418Z,29.95
2016-05-10T08:04:57.436Z,29.74
2016-05-10T08:05:57.299Z,29.65
2016-05-10T08:06:57.474Z,29.76
2016-05-10T08:07:57.491Z,29.74
2016-05-10T08:08:57.369Z,29.49
2016-05-10T08:09:57.372Z,29.24
2016-05-10T08:10:57.562Z,29.21
2016-05-10T08:11:57.424Z,29.14
2016-05-10T08:12:57.599Z,29.11
2016-05-10T08:13:57.617Z,29.09
2016-05-10T08:14:57.651Z,29.04
2016-05-10T08:15:57.654Z,28.9
2016-05-10T08:16:57.671Z,28.92
2016-05-10T08:17:57.690Z,28.85
2016-05-10T08:18:57.709Z,28.85
2016-05-10T08:19:57.727Z,28.78
2016-05-10T08:20:57.745Z,28.7
2016-05-10T08:21:57.623Z,28.78
2016-05-10T08:22:57.626Z,28.76
2016-05-10T08:23:57.863Z,28.76
2016-05-10T08:24:57.818Z,28.78
2016-05-10T08:25:57.524Z,28.86
2016-05-10T08:26:57.745Z,28.68
2016-05-10T08:27:57.873Z,28.49
2016-05-10T08:28:57.876Z,28.56
2016-05-10T08:30:00.972Z,28.52
2016-05-10T08:30:58.006Z,28.48
2016-05-10T08:31:57.791Z,28.31
2016-05-10T08:32:59.027Z,28.12
2016-05-10T08:33:57.812Z,28.06
2016-05-10T08:34:58.002Z,27.75
2016-05-10T08:35:58.004Z,27.62
2016-05-10T08:38:58.059Z,27.04
2016-05-10T08:39:58.077Z,26.82
2016-05-10T08:40:58.080Z,26.57
2016-05-10T08:41:58.098Z,26.43
2016-05-10T08:42:58.116Z,26.07
2016-05-10T08:43:58.119Z,25.97
2016-05-10T08:44:58.138Z,25.65
2016-05-10T08:45:58.140Z,25.28
2016-05-10T08:46:58.174Z,25.14
2016-05-10T08:47:58.177Z,24.87
2016-05-10T08:48:58.196Z,24.8
2016-05-10T08:49:58.214Z,24.6
2016-05-10T08:50:58.217Z,24.5
2016-05-10T08:51:58.235Z,24.37
2016-05-10T08:52:58.238Z,24.13
2016-05-10T08:53:58.100Z,23.98
2016-05-10T08:54:58.321Z,23.83
2016-05-10T08:56:00.152Z,23.65
2016-05-10T08:56:58.279Z,23.46
2016-05-10T08:57:58.923Z,23.28
2016-05-10T08:58:58.816Z,23.17
2016-05-10T08:59:58.256Z,23.04
2016-05-10T09:00:58.822Z,22.94
2016-05-10T09:01:58.324Z,22.86
2016-05-10T09:02:58.342Z,22.83
2016-05-10T09:03:59.094Z,22.67
2016-05-10T09:05:59.133Z,22.45
2016-05-10T09:06:59.400Z,22.49
2016-05-10T09:07:58.919Z,22.43
2016-05-10T09:08:58.375Z,22.31
2016-05-10T09:09:58.393Z,22.39
2016-05-10T09:10:58.396Z,22.21
2016-05-10T09:12:05.758Z,22.22
2016-05-10T09:12:59.026Z,22.21
2016-05-10T09:13:58.419Z,22.1
2016-05-10T09:14:59.797Z,22.07
2016-05-10T09:15:58.924Z,22.09
2016-05-10T09:16:58.505Z,22.07
2016-05-10T09:17:58.446Z,22.02
2016-05-10T09:18:58.485Z,22.03
2016-05-10T09:19:58.545Z,22.07
2016-05-10T09:21:03.183Z,22.02
2016-05-10T09:21:59.118Z,22
2016-05-10T09:22:58.677Z,22.05
2016-05-10T09:23:59.572Z,21.98
2016-05-10T09:24:58.715Z,21.98
2016-05-10T09:25:58.577Z,22.06
2016-05-10T09:26:58.595Z,22.05
2016-05-10T09:27:58.628Z,22.09
2016-05-10T09:28:58.777Z,22.1
2016-05-10T09:29:59.240Z,22.07
2016-05-10T09:30:58.684Z,22.12
2016-05-10T09:31:58.834Z,22.21
2016-05-10T09:32:58.825Z,22.07
2016-05-10T09:33:58.831Z,22.07
2016-05-10T09:34:58.851Z,22.07
2016-05-10T09:35:58.839Z,22.02
2016-05-10T09:36:58.844Z,22.09
2016-05-10T09:37:58.865Z,21.98
2016-05-10T09:38:58.868Z,22.03
2016-05-10T09:39:58.872Z,22.03
2016-05-10T09:40:58.875Z,22.03
2016-05-10T09:41:58.879Z,22.1
2016-05-10T09:42:58.898Z,21.94
2016-05-10T09:43:58.900Z,22
2016-05-10T09:44:59.545Z,22.05
2016-05-10T09:45:58.891Z,22.1
2016-05-10T09:46:58.910Z,22.17
2016-05-10T09:47:58.929Z,22.18
2016-05-10T09:48:58.915Z,22.17
2016-05-10T09:49:58.918Z,22.21
2016-05-10T09:50:58.764Z,22.3
2016-05-10T09:51:58.939Z,22.22
2016-05-10T09:52:58.942Z,22.35
2016-05-10T09:53:58.945Z,22.33
2016-05-10T09:54:58.931Z,22.33
2016-05-10T09:55:58.794Z,22.36
2016-05-10T09:56:58.953Z,22.45
2016-05-10T09:57:58.955Z,22.4
2016-05-10T09:58:58.975Z,22.4
2016-05-10T09:59:59.289Z,22.45
2016-05-10T10:00:58.964Z,22.33
2016-05-10T10:01:58.982Z,22.39
2016-05-10T10:02:58.828Z,22.33
2016-05-10T10:03:58.831Z,22.4
2016-05-10T10:04:58.990Z,22.4
2016-05-10T10:05:58.993Z,22.31
2016-05-10T10:06:58.683Z,22.37
2016-05-10T10:07:59.013Z,22.39
2016-05-10T10:08:59.017Z,22.33
2016-05-10T10:09:58.863Z,22.28
2016-05-10T10:10:59.007Z,22.33
2016-05-10T10:11:59.010Z,22.43
2016-05-10T10:12:59.027Z,22.49
2016-05-10T10:13:59.030Z,22.51
2016-05-10T10:14:59.313Z,22.49
2016-05-10T10:15:59.535Z,22.55
2016-05-10T10:16:59.476Z,22.49
2016-05-10T10:17:58.884Z,22.47
2016-05-10T10:18:59.809Z,22.52
2016-05-10T10:19:59.608Z,22.51
2016-05-10T10:20:59.143Z,22.47
2016-05-10T10:22:00.004Z,22.54
2016-05-10T10:23:00.335Z,22.49
2016-05-10T10:24:00.150Z,22.51
2016-05-10T10:24:59.138Z,22.54
2016-05-10T10:26:00.062Z,22.52
2016-05-10T10:27:00.456Z,22.46
2016-05-10T10:27:59.818Z,22.57
2016-05-10T10:28:59.820Z,22.6
2016-05-10T10:30:00.292Z,22.6
2016-05-10T10:31:14.278Z,22.62
2016-05-10T10:32:00.000Z,22.62
2016-05-10T10:32:59.112Z,22.6
2016-05-10T10:33:59.114Z,22.65
2016-05-10T10:34:59.180Z,22.64
2016-05-10T10:35:59.120Z,22.61
2016-05-10T10:36:59.138Z,22.72
2016-05-10T10:37:59.141Z,22.73
2016-05-10T10:38:59.144Z,22.77
2016-05-10T10:39:59.146Z,22.7
2016-05-10T10:40:59.150Z,22.76
2016-05-10T10:41:59.152Z,22.7
2016-05-10T10:42:59.155Z,22.79
2016-05-10T10:43:59.174Z,22.79
2016-05-10T10:44:59.410Z,22.8
2016-05-10T10:45:59.179Z,22.82
2016-05-10T10:46:59.182Z,22.86
2016-05-10T10:47:59.184Z,22.83
2016-05-10T10:48:59.201Z,22.9
2016-05-10T10:49:59.205Z,22.88
2016-05-10T10:50:59.193Z,22.9
2016-05-10T10:51:59.210Z,22.88
2016-05-10T10:52:59.041Z,22.88
2016-05-10T10:53:59.215Z,22.94
2016-05-10T10:54:59.203Z,22.9
2016-05-10T10:55:59.236Z,22.94
2016-05-10T10:56:59.223Z,22.97
2016-05-10T10:57:59.086Z,22.9
2016-05-10T10:58:59.261Z,23.01
2016-05-10T10:59:59.342Z,22.98
2016-05-10T11:00:59.094Z,22.88
2016-05-10T11:01:59.097Z,22.91
2016-05-10T11:02:59.100Z,22.91
2016-05-10T11:03:59.275Z,22.91
2016-05-10T11:04:59.277Z,22.98
2016-05-10T11:05:59.264Z,22.92
2016-05-10T11:06:59.282Z,22.98
2016-05-10T11:07:59.269Z,22.94
2016-05-10T11:08:59.287Z,22.98
2016-05-10T11:09:59.133Z,23.1
2016-05-10T11:10:59.293Z,23.15
2016-05-10T11:11:59.311Z,23.09
2016-05-10T11:12:59.298Z,23.2
2016-05-10T11:13:59.301Z,23.2
2016-05-10T11:14:59.007Z,23.17
2016-05-10T11:15:59.149Z,23.17
2016-05-10T11:17:00.871Z,23.23
2016-05-10T11:19:59.332Z,23.31
2016-05-10T11:20:59.351Z,23.25
2016-05-10T11:21:59.338Z,23.25
2016-05-10T11:22:59.201Z,23.27
2016-05-10T11:23:59.343Z,23.28
2016-05-10T11:24:59.346Z,23.28
2016-05-10T11:25:59.365Z,23.2
2016-05-10T11:26:59.226Z,23.28
2016-05-10T11:27:59.385Z,23.22
2016-05-10T11:28:59.217Z,23.19
2016-05-10T11:29:59.390Z,23.22
2016-05-10T11:30:59.393Z,23.23
2016-05-10T11:31:59.395Z,23.22
2016-05-10T11:32:59.398Z,23.17
2016-05-10T11:34:00.072Z,23.2
2016-05-10T11:35:00.013Z,23.16
2016-05-10T11:35:59.406Z,23.25
2016-05-10T11:37:00.300Z,23.13
2016-05-10T11:37:59.427Z,23.1
2016-05-10T11:38:59.618Z,23.17
2016-05-10T11:39:59.746Z,23.17
2016-05-10T11:41:01.530Z,23.13
2016-05-10T11:42:01.142Z,23.19
2016-05-10T11:43:00.222Z,23.17
2016-05-10T11:43:59.818Z,23.2
2016-05-10T11:45:01.041Z,23.25
2016-05-10T11:46:00.106Z,23.28
2016-05-10T11:46:59.890Z,23.25
2016-05-10T11:48:59.473Z,23.25
2016-05-10T11:53:59.330Z,23.32
2016-05-10T11:54:59.348Z,23.32
2016-05-10T11:55:59.351Z,23.33
2016-05-10T11:56:59.526Z,23.46
2016-05-10T11:57:59.512Z,23.35
2016-05-10T11:58:59.531Z,23.42
2016-05-10T11:59:59.378Z,23.39
2016-05-10T12:00:59.520Z,23.38
2016-05-10T12:01:59.555Z,23.35
2016-05-10T12:05:59.394Z,23.43
2016-05-10T12:07:59.555Z,23.43
2016-05-10T12:08:59.574Z,23.42
2016-05-10T12:09:59.561Z,23.42
2016-05-10T12:10:59.580Z,23.5
2016-05-10T12:11:59.582Z,23.39
2016-05-10T12:12:59.428Z,23.38
2016-05-10T12:13:59.603Z,23.42
2016-05-10T12:14:59.683Z,23.4
2016-05-10T12:15:59.436Z,23.43
2016-05-10T12:16:59.596Z,23.5
2016-05-10T12:17:59.613Z,23.53
2016-05-10T12:18:59.616Z,23.5
2016-05-10T12:19:59.619Z,23.54
2016-05-10T12:20:59.637Z,23.43
2016-05-10T12:21:59.468Z,23.5
2016-05-10T12:22:59.627Z,23.47
2016-05-10T12:24:26.176Z,23.58
2016-05-10T12:24:59.493Z,23.58
2016-05-10T12:25:59.495Z,23.53
2016-05-10T12:26:59.653Z,23.6
2016-05-10T12:27:59.501Z,23.58
2016-05-10T12:28:59.659Z,23.58
2016-05-10T12:30:00.396Z,23.65
2016-05-10T12:30:59.680Z,23.69
2016-05-10T12:31:59.697Z,23.65
2016-05-10T12:32:59.685Z,23.61
2016-05-10T12:33:59.688Z,23.68
2016-05-10T12:34:59.690Z,23.65
2016-05-10T12:35:59.693Z,23.57
2016-05-10T12:36:59.712Z,23.6
2016-05-10T12:37:59.714Z,23.54
2016-05-10T12:38:59.717Z,23.47
2016-05-10T12:39:59.719Z,23.51
2016-05-10T12:40:59.722Z,23.6
2016-05-10T12:41:59.741Z,23.68
2016-05-10T12:42:59.728Z,23.65
2016-05-10T12:43:59.746Z,23.7
2016-05-10T12:44:59.811Z,23.73
2016-05-10T12:45:59.751Z,23.78
2016-05-10T12:46:59.755Z,23.76
2016-05-10T12:47:59.757Z,23.79
2016-05-10T12:48:59.760Z,23.75
2016-05-10T12:49:59.762Z,23.66
2016-05-10T12:50:59.765Z,23.66
2016-05-10T12:52:01.502Z,23.69
2016-05-10T12:53:00.943Z,23.66
2016-05-10T12:54:00.335Z,23.69
2016-05-10T12:54:59.790Z,23.69
2016-05-10T12:55:59.826Z,23.69
2016-05-10T12:56:59.812Z,23.73
2016-05-10T12:58:00.440Z,23.69
2016-05-10T13:00:14.007Z,23.8
2016-05-10T13:01:00.573Z,23.8
2016-05-10T13:01:59.842Z,23.78
2016-05-10T13:04:00.565Z,23.83
2016-05-10T13:04:59.787Z,23.79
2016-05-10T13:06:00.259Z,23.76
2016-05-10T13:06:59.948Z,23.91
2016-05-10T13:07:59.873Z,23.85
2016-05-10T13:09:01.297Z,23.79
2016-05-10T13:10:01.519Z,23.97
2016-05-10T13:11:14.553Z,23.79
2016-05-10T13:11:59.883Z,23.94
2016-05-10T13:13:00.371Z,23.87
2016-05-10T13:14:00.014Z,23.8